sensor_id;sensor_type;location;lat;lon;timestamp;P1;durP1;ratioP1;P2;durP2;ratioP2
7263;SDS011;3673;52.480;13.348;2023-04-24T00:02:00;7.65;;;5.53;;
7263;SDS011;3673;52.480;13.348;2023-04-24T00:04:28;6.38;;;5.03;;
7263;SDS011;3673;52.480;13.348;2023-04-24T00:06:56;6.65;;;5.18;;
7263;SDS011;3673;52.480;13.348;2023-04-24T00:09:24;5.60;;;5.10;;
7263;SDS011;3673;52.480;13.348;2023-04-24T00:11:52;6.38;;;5.05;;
7263;SDS011;3673;52.480;13.348;2023-04-24T00:14:19;5.97;;;5.35;;
7263;SDS011;3673;52.480;13.348;2023-04-24T00:16:47;5.22;;;4.72;;
7263;SDS011;3673;52.480;13.348;2023-04-24T00:19:14;5.72;;;5.13;;
7263;SDS011;3673;52.480;13.348;2023-04-24T00:21:41;7.40;;;4.90;;
7263;SDS011;3673;52.480;13.348;2023-04-24T00:24:08;8.15;;;5.22;;
7263;SDS011;3673;52.480;13.348;2023-04-24T00:26:35;6.85;;;4.85;;
7263;SDS011;3673;52.480;13.348;2023-04-24T00:29:02;5.90;;;5.30;;
7263;SDS011;3673;52.480;13.348;2023-04-24T00:31:29;6.28;;;5.30;;
7263;SDS011;3673;52.480;13.348;2023-04-24T00:33:57;5.78;;;5.28;;
7263;SDS011;3673;52.480;13.348;2023-04-24T00:36:24;6.80;;;5.30;;
7263;SDS011;3673;52.480;13.348;2023-04-24T00:38:52;7.00;;;5.60;;
7263;SDS011;3673;52.480;13.348;2023-04-24T00:41:18;6.20;;;5.18;;
7263;SDS011;3673;52.480;13.348;2023-04-24T00:43:45;6.90;;;5.35;;
7263;SDS011;3673;52.480;13.348;2023-04-24T00:46:12;6.32;;;5.72;;
7263;SDS011;3673;52.480;13.348;2023-04-24T00:48:40;7.32;;;5.32;;
7263;SDS011;3673;52.480;13.348;2023-04-24T00:51:08;5.68;;;4.95;;
7263;SDS011;3673;52.480;13.348;2023-04-24T00:53:35;6.75;;;5.75;;
7263;SDS011;3673;52.480;13.348;2023-04-24T00:56:02;6.97;;;5.95;;
7263;SDS011;3673;52.480;13.348;2023-04-24T00:58:29;7.20;;;5.40;;
7263;SDS011;3673;52.480;13.348;2023-04-24T01:00:56;6.22;;;5.00;;
7263;SDS011;3673;52.480;13.348;2023-04-24T01:03:26;6.05;;;5.25;;
7263;SDS011;3673;52.480;13.348;2023-04-24T01:05:57;7.32;;;6.07;;
7263;SDS011;3673;52.480;13.348;2023-04-24T01:08:26;8.80;;;5.85;;
7263;SDS011;3673;52.480;13.348;2023-04-24T01:10:54;6.55;;;5.47;;
7263;SDS011;3673;52.480;13.348;2023-04-24T01:13:22;6.30;;;5.40;;
7263;SDS011;3673;52.480;13.348;2023-04-24T01:15:50;5.30;;;4.70;;
7263;SDS011;3673;52.480;13.348;2023-04-24T01:18:17;11.35;;;7.10;;
7263;SDS011;3673;52.480;13.348;2023-04-24T01:20:44;4.93;;;4.45;;
7263;SDS011;3673;52.480;13.348;2023-04-24T01:23:13;7.05;;;5.63;;
7263;SDS011;3673;52.480;13.348;2023-04-24T01:25:40;5.30;;;4.80;;
7263;SDS011;3673;52.480;13.348;2023-04-24T01:28:07;6.40;;;5.53;;
7263;SDS011;3673;52.480;13.348;2023-04-24T01:30:34;5.15;;;4.68;;
7263;SDS011;3673;52.480;13.348;2023-04-24T01:33:01;6.25;;;5.15;;
7263;SDS011;3673;52.480;13.348;2023-04-24T01:35:28;5.32;;;4.82;;
7263;SDS011;3673;52.480;13.348;2023-04-24T01:37:55;5.65;;;5.05;;
7263;SDS011;3673;52.480;13.348;2023-04-24T01:40:23;5.53;;;5.00;;
7263;SDS011;3673;52.480;13.348;2023-04-24T01:42:50;5.75;;;4.90;;
7263;SDS011;3673;52.480;13.348;2023-04-24T01:45:18;5.22;;;4.72;;
7263;SDS011;3673;52.480;13.348;2023-04-24T01:47:45;5.25;;;4.75;;
7263;SDS011;3673;52.480;13.348;2023-04-24T01:50:14;5.13;;;4.43;;
7263;SDS011;3673;52.480;13.348;2023-04-24T01:52:41;5.47;;;4.90;;
7263;SDS011;3673;52.480;13.348;2023-04-24T01:55:08;6.53;;;4.85;;
7263;SDS011;3673;52.480;13.348;2023-04-24T01:57:37;7.03;;;5.03;;
7263;SDS011;3673;52.480;13.348;2023-04-24T02:00:05;5.07;;;4.57;;
7263;SDS011;3673;52.480;13.348;2023-04-24T02:02:33;9.07;;;5.10;;
7263;SDS011;3673;52.480;13.348;2023-04-24T02:05:00;6.18;;;5.57;;
7263;SDS011;3673;52.480;13.348;2023-04-24T02:07:27;6.10;;;5.50;;
7263;SDS011;3673;52.480;13.348;2023-04-24T02:09:54;6.68;;;5.35;;
7263;SDS011;3673;52.480;13.348;2023-04-24T02:12:22;7.65;;;5.20;;
7263;SDS011;3673;52.480;13.348;2023-04-24T02:14:50;6.05;;;5.32;;
7263;SDS011;3673;52.480;13.348;2023-04-24T02:17:17;5.28;;;4.78;;
7263;SDS011;3673;52.480;13.348;2023-04-24T02:19:44;6.88;;;5.90;;
7263;SDS011;3673;52.480;13.348;2023-04-24T02:22:11;5.63;;;4.78;;
7263;SDS011;3673;52.480;13.348;2023-04-24T02:24:37;6.40;;;5.20;;
7263;SDS011;3673;52.480;13.348;2023-04-24T02:27:05;5.82;;;5.22;;
7263;SDS011;3673;52.480;13.348;2023-04-24T02:29:31;5.63;;;5.00;;
7263;SDS011;3673;52.480;13.348;2023-04-24T02:32:00;6.22;;;5.32;;
7263;SDS011;3673;52.480;13.348;2023-04-24T02:34:27;8.20;;;4.90;;
7263;SDS011;3673;52.480;13.348;2023-04-24T02:36:53;7.28;;;5.32;;
7263;SDS011;3673;52.480;13.348;2023-04-24T02:39:20;6.25;;;5.65;;
7263;SDS011;3673;52.480;13.348;2023-04-24T02:41:50;7.82;;;5.45;;
7263;SDS011;3673;52.480;13.348;2023-04-24T02:44:16;5.88;;;5.38;;
7263;SDS011;3673;52.480;13.348;2023-04-24T02:46:43;6.30;;;5.45;;
7263;SDS011;3673;52.480;13.348;2023-04-24T02:49:11;7.25;;;6.07;;
7263;SDS011;3673;52.480;13.348;2023-04-24T02:51:38;9.25;;;5.53;;
7263;SDS011;3673;52.480;13.348;2023-04-24T02:54:06;7.88;;;6.20;;
7263;SDS011;3673;52.480;13.348;2023-04-24T02:56:34;8.07;;;6.40;;
7263;SDS011;3673;52.480;13.348;2023-04-24T02:59:01;6.85;;;6.07;;
7263;SDS011;3673;52.480;13.348;2023-04-24T03:01:28;9.35;;;7.57;;
7263;SDS011;3673;52.480;13.348;2023-04-24T03:03:55;9.73;;;6.95;;
7263;SDS011;3673;52.480;13.348;2023-04-24T03:06:24;6.70;;;5.93;;
7263;SDS011;3673;52.480;13.348;2023-04-24T03:08:52;7.10;;;6.40;;
7263;SDS011;3673;52.480;13.348;2023-04-24T03:11:19;7.57;;;6.55;;
7263;SDS011;3673;52.480;13.348;2023-04-24T03:13:45;6.45;;;5.85;;
7263;SDS011;3673;52.480;13.348;2023-04-24T03:16:12;8.63;;;6.45;;
7263;SDS011;3673;52.480;13.348;2023-04-24T03:18:39;9.93;;;6.07;;
7263;SDS011;3673;52.480;13.348;2023-04-24T03:21:06;6.55;;;5.80;;
7263;SDS011;3673;52.480;13.348;2023-04-24T03:23:34;7.15;;;6.35;;
7263;SDS011;3673;52.480;13.348;2023-04-24T03:26:01;7.25;;;5.63;;
7263;SDS011;3673;52.480;13.348;2023-04-24T03:28:28;6.80;;;6.20;;
7263;SDS011;3673;52.480;13.348;2023-04-24T03:30:55;6.13;;;5.45;;
7263;SDS011;3673;52.480;13.348;2023-04-24T03:33:21;7.38;;;5.63;;
7263;SDS011;3673;52.480;13.348;2023-04-24T03:35:48;6.28;;;5.68;;
7263;SDS011;3673;52.480;13.348;2023-04-24T03:38:15;7.40;;;5.55;;
7263;SDS011;3673;52.480;13.348;2023-04-24T03:40:43;6.47;;;5.88;;
7263;SDS011;3673;52.480;13.348;2023-04-24T03:43:10;6.78;;;5.72;;
7263;SDS011;3673;52.480;13.348;2023-04-24T03:45:36;8.80;;;7.50;;
7263;SDS011;3673;52.480;13.348;2023-04-24T03:48:03;8.82;;;6.18;;
7263;SDS011;3673;52.480;13.348;2023-04-24T03:50:30;6.15;;;5.55;;
7263;SDS011;3673;52.480;13.348;2023-04-24T03:52:57;6.90;;;5.88;;
7263;SDS011;3673;52.480;13.348;2023-04-24T03:55:23;6.20;;;5.60;;
7263;SDS011;3673;52.480;13.348;2023-04-24T03:57:52;7.40;;;6.68;;
7263;SDS011;3673;52.480;13.348;2023-04-24T04:00:18;7.95;;;5.80;;
7263;SDS011;3673;52.480;13.348;2023-04-24T04:02:46;6.53;;;5.55;;
7263;SDS011;3673;52.480;13.348;2023-04-24T04:05:12;5.95;;;5.22;;
7263;SDS011;3673;52.480;13.348;2023-04-24T04:07:39;7.80;;;5.68;;
7263;SDS011;3673;52.480;13.348;2023-04-24T04:10:07;7.25;;;5.68;;
7263;SDS011;3673;52.480;13.348;2023-04-24T04:12:34;6.10;;;5.50;;
7263;SDS011;3673;52.480;13.348;2023-04-24T04:15:02;6.68;;;5.38;;
7263;SDS011;3673;52.480;13.348;2023-04-24T04:17:30;6.13;;;5.53;;
7263;SDS011;3673;52.480;13.348;2023-04-24T04:19:57;6.40;;;5.80;;
7263;SDS011;3673;52.480;13.348;2023-04-24T04:22:25;7.15;;;5.70;;
7263;SDS011;3673;52.480;13.348;2023-04-24T04:24:51;7.05;;;5.70;;
7263;SDS011;3673;52.480;13.348;2023-04-24T04:27:18;11.70;;;5.70;;
7263;SDS011;3673;52.480;13.348;2023-04-24T04:29:46;8.35;;;6.00;;
7263;SDS011;3673;52.480;13.348;2023-04-24T04:32:14;6.20;;;5.25;;
7263;SDS011;3673;52.480;13.348;2023-04-24T04:34:41;6.32;;;5.60;;
7263;SDS011;3673;52.480;13.348;2023-04-24T04:37:10;9.38;;;7.82;;
7263;SDS011;3673;52.480;13.348;2023-04-24T04:39:37;6.22;;;5.65;;
7263;SDS011;3673;52.480;13.348;2023-04-24T04:42:04;8.85;;;6.28;;
7263;SDS011;3673;52.480;13.348;2023-04-24T04:44:31;6.55;;;5.78;;
7263;SDS011;3673;52.480;13.348;2023-04-24T04:47:00;6.57;;;5.32;;
7263;SDS011;3673;52.480;13.348;2023-04-24T04:49:30;6.75;;;5.53;;
7263;SDS011;3673;52.480;13.348;2023-04-24T04:51:57;8.57;;;5.00;;
7263;SDS011;3673;52.480;13.348;2023-04-24T04:54:23;6.93;;;5.38;;
7263;SDS011;3673;52.480;13.348;2023-04-24T04:56:50;9.35;;;5.30;;
7263;SDS011;3673;52.480;13.348;2023-04-24T04:59:17;9.85;;;5.47;;
7263;SDS011;3673;52.480;13.348;2023-04-24T05:01:44;6.00;;;4.88;;
7263;SDS011;3673;52.480;13.348;2023-04-24T05:04:11;5.35;;;4.80;;
7263;SDS011;3673;52.480;13.348;2023-04-24T05:06:39;6.80;;;5.05;;
7263;SDS011;3673;52.480;13.348;2023-04-24T05:09:06;4.85;;;3.90;;
7263;SDS011;3673;52.480;13.348;2023-04-24T05:11:32;7.93;;;4.18;;
7263;SDS011;3673;52.480;13.348;2023-04-24T05:13:59;3.53;;;3.22;;
7263;SDS011;3673;52.480;13.348;2023-04-24T05:16:26;5.47;;;4.28;;
7263;SDS011;3673;52.480;13.348;2023-04-24T05:18:53;3.40;;;3.10;;
7263;SDS011;3673;52.480;13.348;2023-04-24T05:21:19;4.93;;;3.55;;
7263;SDS011;3673;52.480;13.348;2023-04-24T05:23:48;23.20;;;15.95;;
7263;SDS011;3673;52.480;13.348;2023-04-24T05:26:15;5.95;;;4.13;;
7263;SDS011;3673;52.480;13.348;2023-04-24T05:28:42;4.00;;;3.33;;
7263;SDS011;3673;52.480;13.348;2023-04-24T05:31:09;3.22;;;2.92;;
7263;SDS011;3673;52.480;13.348;2023-04-24T05:33:37;2.75;;;2.53;;
7263;SDS011;3673;52.480;13.348;2023-04-24T05:36:04;3.15;;;2.83;;
7263;SDS011;3673;52.480;13.348;2023-04-24T05:38:32;3.10;;;2.80;;
7263;SDS011;3673;52.480;13.348;2023-04-24T05:41:01;7.13;;;3.75;;
7263;SDS011;3673;52.480;13.348;2023-04-24T05:43:27;10.13;;;2.97;;
7263;SDS011;3673;52.480;13.348;2023-04-24T05:45:54;3.17;;;2.88;;
7263;SDS011;3673;52.480;13.348;2023-04-24T05:48:21;3.75;;;2.47;;
7263;SDS011;3673;52.480;13.348;2023-04-24T05:50:48;3.28;;;2.75;;
7263;SDS011;3673;52.480;13.348;2023-04-24T05:53:15;6.63;;;2.78;;
7263;SDS011;3673;52.480;13.348;2023-04-24T05:55:42;3.13;;;2.50;;
7263;SDS011;3673;52.480;13.348;2023-04-24T05:58:11;2.67;;;2.42;;
7263;SDS011;3673;52.480;13.348;2023-04-24T06:00:38;3.45;;;2.30;;
7263;SDS011;3673;52.480;13.348;2023-04-24T06:03:07;3.72;;;2.58;;
7263;SDS011;3673;52.480;13.348;2023-04-24T06:05:34;3.35;;;2.22;;
7263;SDS011;3673;52.480;13.348;2023-04-24T06:08:01;3.70;;;2.67;;
7263;SDS011;3673;52.480;13.348;2023-04-24T06:10:28;2.45;;;2.20;;
7263;SDS011;3673;52.480;13.348;2023-04-24T06:12:55;4.18;;;2.55;;
7263;SDS011;3673;52.480;13.348;2023-04-24T06:15:26;4.38;;;2.38;;
7263;SDS011;3673;52.480;13.348;2023-04-24T06:17:55;2.40;;;2.00;;
7263;SDS011;3673;52.480;13.348;2023-04-24T06:20:22;2.83;;;2.08;;
7263;SDS011;3673;52.480;13.348;2023-04-24T06:22:49;2.45;;;2.17;;
7263;SDS011;3673;52.480;13.348;2023-04-24T06:25:16;3.33;;;2.03;;
7263;SDS011;3673;52.480;13.348;2023-04-24T06:27:42;2.10;;;1.90;;
7263;SDS011;3673;52.480;13.348;2023-04-24T06:30:10;2.35;;;1.80;;
7263;SDS011;3673;52.480;13.348;2023-04-24T06:32:39;3.85;;;1.70;;
7263;SDS011;3673;52.480;13.348;2023-04-24T06:35:06;3.00;;;2.13;;
7263;SDS011;3673;52.480;13.348;2023-04-24T06:37:34;3.70;;;1.60;;
7263;SDS011;3673;52.480;13.348;2023-04-24T06:40:01;3.38;;;1.52;;
7263;SDS011;3673;52.480;13.348;2023-04-24T06:42:30;3.47;;;1.60;;
7263;SDS011;3673;52.480;13.348;2023-04-24T06:44:57;4.68;;;1.58;;
7263;SDS011;3673;52.480;13.348;2023-04-24T06:47:23;2.50;;;1.30;;
7263;SDS011;3673;52.480;13.348;2023-04-24T06:49:51;5.00;;;1.35;;
7263;SDS011;3673;52.480;13.348;2023-04-24T06:52:20;2.67;;;1.40;;
7263;SDS011;3673;52.480;13.348;2023-04-24T06:54:46;2.25;;;1.52;;
7263;SDS011;3673;52.480;13.348;2023-04-24T06:57:13;4.45;;;1.40;;
7263;SDS011;3673;52.480;13.348;2023-04-24T06:59:41;3.78;;;1.17;;
7263;SDS011;3673;52.480;13.348;2023-04-24T07:02:08;2.17;;;1.40;;
7263;SDS011;3673;52.480;13.348;2023-04-24T07:04:34;2.47;;;1.27;;
7263;SDS011;3673;52.480;13.348;2023-04-24T07:07:03;2.15;;;0.95;;
7263;SDS011;3673;52.480;13.348;2023-04-24T07:09:31;1.35;;;0.93;;
7263;SDS011;3673;52.480;13.348;2023-04-24T07:12:00;3.90;;;1.45;;
7263;SDS011;3673;52.480;13.348;2023-04-24T07:14:27;2.30;;;0.98;;
7263;SDS011;3673;52.480;13.348;2023-04-24T07:16:54;1.42;;;1.10;;
7263;SDS011;3673;52.480;13.348;2023-04-24T07:19:22;1.75;;;1.05;;
7263;SDS011;3673;52.480;13.348;2023-04-24T07:21:48;2.85;;;1.20;;
7263;SDS011;3673;52.480;13.348;2023-04-24T07:24:16;1.70;;;1.20;;
7263;SDS011;3673;52.480;13.348;2023-04-24T07:26:43;5.15;;;1.20;;
7263;SDS011;3673;52.480;13.348;2023-04-24T07:29:11;1.00;;;0.80;;
7263;SDS011;3673;52.480;13.348;2023-04-24T07:31:39;2.70;;;0.80;;
7263;SDS011;3673;52.480;13.348;2023-04-24T07:34:06;2.03;;;1.02;;
7263;SDS011;3673;52.480;13.348;2023-04-24T07:36:33;1.50;;;1.10;;
7263;SDS011;3673;52.480;13.348;2023-04-24T07:39:00;1.80;;;1.10;;
7263;SDS011;3673;52.480;13.348;2023-04-24T07:41:28;2.10;;;0.90;;
7263;SDS011;3673;52.480;13.348;2023-04-24T07:43:55;2.17;;;1.05;;
7263;SDS011;3673;52.480;13.348;2023-04-24T07:46:22;3.22;;;0.80;;
7263;SDS011;3673;52.480;13.348;2023-04-24T07:48:49;2.10;;;0.70;;
7263;SDS011;3673;52.480;13.348;2023-04-24T07:51:16;2.47;;;0.90;;
7263;SDS011;3673;52.480;13.348;2023-04-24T07:53:43;0.82;;;0.60;;
7263;SDS011;3673;52.480;13.348;2023-04-24T07:56:10;1.83;;;0.77;;
7263;SDS011;3673;52.480;13.348;2023-04-24T07:58:38;0.80;;;0.68;;
7263;SDS011;3673;52.480;13.348;2023-04-24T08:01:05;0.65;;;0.50;;
7263;SDS011;3673;52.480;13.348;2023-04-24T08:03:32;2.65;;;0.50;;
7263;SDS011;3673;52.480;13.348;2023-04-24T08:05:59;2.88;;;0.70;;
7263;SDS011;3673;52.480;13.348;2023-04-24T08:08:26;1.48;;;0.70;;
7263;SDS011;3673;52.480;13.348;2023-04-24T08:10:53;1.00;;;0.70;;
7263;SDS011;3673;52.480;13.348;2023-04-24T08:13:19;1.27;;;0.60;;
7263;SDS011;3673;52.480;13.348;2023-04-24T08:15:48;1.27;;;0.80;;
7263;SDS011;3673;52.480;13.348;2023-04-24T08:18:15;1.30;;;0.60;;
7263;SDS011;3673;52.480;13.348;2023-04-24T08:20:41;1.10;;;0.70;;
7263;SDS011;3673;52.480;13.348;2023-04-24T08:23:08;0.77;;;0.77;;
7263;SDS011;3673;52.480;13.348;2023-04-24T08:25:35;0.63;;;0.60;;
7263;SDS011;3673;52.480;13.348;2023-04-24T08:28:02;1.67;;;0.57;;
7263;SDS011;3673;52.480;13.348;2023-04-24T08:30:34;3.08;;;0.80;;
7263;SDS011;3673;52.480;13.348;2023-04-24T08:33:03;1.27;;;0.63;;
7263;SDS011;3673;52.480;13.348;2023-04-24T08:35:30;5.22;;;0.68;;
7263;SDS011;3673;52.480;13.348;2023-04-24T08:37:56;1.25;;;0.77;;
7263;SDS011;3673;52.480;13.348;2023-04-24T08:40:27;1.02;;;0.70;;
7263;SDS011;3673;52.480;13.348;2023-04-24T08:42:55;1.70;;;0.80;;
7263;SDS011;3673;52.480;13.348;2023-04-24T08:45:22;1.13;;;0.88;;
7263;SDS011;3673;52.480;13.348;2023-04-24T08:47:51;1.90;;;0.88;;
7263;SDS011;3673;52.480;13.348;2023-04-24T08:50:20;1.05;;;0.95;;
7263;SDS011;3673;52.480;13.348;2023-04-24T08:52:49;3.00;;;1.48;;
7263;SDS011;3673;52.480;13.348;2023-04-24T08:55:18;3.03;;;0.95;;
7263;SDS011;3673;52.480;13.348;2023-04-24T08:57:45;2.03;;;1.20;;
7263;SDS011;3673;52.480;13.348;2023-04-24T09:00:16;0.77;;;0.70;;
7263;SDS011;3673;52.480;13.348;2023-04-24T09:02:45;0.90;;;0.80;;
7263;SDS011;3673;52.480;13.348;2023-04-24T09:05:15;1.23;;;0.80;;
7263;SDS011;3673;52.480;13.348;2023-04-24T09:07:45;1.23;;;1.08;;
7263;SDS011;3673;52.480;13.348;2023-04-24T09:10:19;1.63;;;0.82;;
7263;SDS011;3673;52.480;13.348;2023-04-24T09:12:47;1.00;;;0.77;;
7263;SDS011;3673;52.480;13.348;2023-04-24T09:15:15;0.88;;;0.75;;
7263;SDS011;3673;52.480;13.348;2023-04-24T09:17:43;2.05;;;1.10;;
7263;SDS011;3673;52.480;13.348;2023-04-24T09:20:10;0.80;;;0.80;;
7263;SDS011;3673;52.480;13.348;2023-04-24T09:22:36;2.05;;;0.85;;
7263;SDS011;3673;52.480;13.348;2023-04-24T09:25:05;1.35;;;0.85;;
7263;SDS011;3673;52.480;13.348;2023-04-24T09:27:34;0.95;;;0.80;;
7263;SDS011;3673;52.480;13.348;2023-04-24T09:30:01;1.98;;;1.00;;
7263;SDS011;3673;52.480;13.348;2023-04-24T09:32:29;2.03;;;0.80;;
7263;SDS011;3673;52.480;13.348;2023-04-24T09:35:06;1.45;;;0.88;;
7263;SDS011;3673;52.480;13.348;2023-04-24T09:37:35;3.33;;;1.00;;
7263;SDS011;3673;52.480;13.348;2023-04-24T09:40:15;2.38;;;0.90;;
7263;SDS011;3673;52.480;13.348;2023-04-24T09:42:44;1.75;;;0.80;;
7263;SDS011;3673;52.480;13.348;2023-04-24T09:45:12;0.77;;;0.77;;
7263;SDS011;3673;52.480;13.348;2023-04-24T09:47:39;1.38;;;0.90;;
7263;SDS011;3673;52.480;13.348;2023-04-24T09:50:11;0.85;;;0.60;;
7263;SDS011;3673;52.480;13.348;2023-04-24T09:52:40;1.67;;;0.80;;
7263;SDS011;3673;52.480;13.348;2023-04-24T09:55:15;2.13;;;0.85;;
7263;SDS011;3673;52.480;13.348;2023-04-24T09:57:49;2.95;;;1.15;;
7263;SDS011;3673;52.480;13.348;2023-04-24T10:00:23;2.38;;;0.80;;
7263;SDS011;3673;52.480;13.348;2023-04-24T10:02:54;2.88;;;0.85;;
7263;SDS011;3673;52.480;13.348;2023-04-24T10:05:26;1.75;;;0.77;;
7263;SDS011;3673;52.480;13.348;2023-04-24T10:07:56;4.10;;;1.40;;
7263;SDS011;3673;52.480;13.348;2023-04-24T10:10:27;1.90;;;0.80;;
7263;SDS011;3673;52.480;13.348;2023-04-24T10:12:55;4.75;;;0.88;;
7263;SDS011;3673;52.480;13.348;2023-04-24T10:15:22;1.77;;;0.82;;
7263;SDS011;3673;52.480;13.348;2023-04-24T10:17:50;1.05;;;0.90;;
7263;SDS011;3673;52.480;13.348;2023-04-24T10:20:19;3.40;;;1.33;;
7263;SDS011;3673;52.480;13.348;2023-04-24T10:22:47;1.30;;;0.90;;
7263;SDS011;3673;52.480;13.348;2023-04-24T10:25:19;1.52;;;0.90;;
7263;SDS011;3673;52.480;13.348;2023-04-24T10:27:49;0.55;;;0.50;;
7263;SDS011;3673;52.480;13.348;2023-04-24T10:30:17;3.80;;;0.93;;
7263;SDS011;3673;52.480;13.348;2023-04-24T10:32:46;3.33;;;1.10;;
7263;SDS011;3673;52.480;13.348;2023-04-24T10:35:13;3.15;;;1.00;;
7263;SDS011;3673;52.480;13.348;2023-04-24T10:37:42;2.97;;;1.23;;
7263;SDS011;3673;52.480;13.348;2023-04-24T10:40:11;2.15;;;0.88;;
7263;SDS011;3673;52.480;13.348;2023-04-24T10:42:43;1.90;;;1.10;;
7263;SDS011;3673;52.480;13.348;2023-04-24T10:45:18;1.60;;;1.00;;
7263;SDS011;3673;52.480;13.348;2023-04-24T10:47:52;1.40;;;0.68;;
7263;SDS011;3673;52.480;13.348;2023-04-24T10:50:26;1.30;;;0.70;;
7263;SDS011;3673;52.480;13.348;2023-04-24T10:52:55;1.13;;;0.68;;
7263;SDS011;3673;52.480;13.348;2023-04-24T10:55:43;1.92;;;0.88;;
7263;SDS011;3673;52.480;13.348;2023-04-24T10:58:13;3.10;;;0.93;;
7263;SDS011;3673;52.480;13.348;2023-04-24T11:00:41;0.70;;;0.70;;
7263;SDS011;3673;52.480;13.348;2023-04-24T11:03:22;1.40;;;0.75;;
7263;SDS011;3673;52.480;13.348;2023-04-24T11:05:52;1.10;;;0.70;;
7263;SDS011;3673;52.480;13.348;2023-04-24T11:08:24;2.30;;;0.80;;
7263;SDS011;3673;52.480;13.348;2023-04-24T11:10:54;1.98;;;0.98;;
7263;SDS011;3673;52.480;13.348;2023-04-24T11:16:33;1.40;;;0.93;;
7263;SDS011;3673;52.480;13.348;2023-04-24T11:19:05;0.88;;;0.63;;
7263;SDS011;3673;52.480;13.348;2023-04-24T11:21:40;2.10;;;1.27;;
7263;SDS011;3673;52.480;13.348;2023-04-24T11:26:57;1.63;;;1.17;;
7263;SDS011;3673;52.480;13.348;2023-04-24T11:29:41;3.30;;;1.50;;
7263;SDS011;3673;52.480;13.348;2023-04-24T11:35:03;2.38;;;0.90;;
7263;SDS011;3673;52.480;13.348;2023-04-24T11:37:33;3.30;;;1.45;;
7263;SDS011;3673;52.480;13.348;2023-04-24T11:40:03;0.82;;;0.60;;
7263;SDS011;3673;52.480;13.348;2023-04-24T11:42:35;1.55;;;0.80;;
7263;SDS011;3673;52.480;13.348;2023-04-24T11:45:09;5.40;;;0.82;;
7263;SDS011;3673;52.480;13.348;2023-04-24T11:47:37;2.35;;;0.80;;
7263;SDS011;3673;52.480;13.348;2023-04-24T11:50:06;3.40;;;1.55;;
7263;SDS011;3673;52.480;13.348;2023-04-24T11:52:37;0.68;;;0.65;;
7263;SDS011;3673;52.480;13.348;2023-04-24T11:55:06;0.93;;;0.80;;
7263;SDS011;3673;52.480;13.348;2023-04-24T11:57:35;1.85;;;0.95;;
7263;SDS011;3673;52.480;13.348;2023-04-24T12:00:02;2.38;;;1.20;;
7263;SDS011;3673;52.480;13.348;2023-04-24T12:02:32;4.72;;;1.50;;
7263;SDS011;3673;52.480;13.348;2023-04-24T12:04:59;2.67;;;0.63;;
7263;SDS011;3673;52.480;13.348;2023-04-24T12:07:25;3.05;;;0.93;;
7263;SDS011;3673;52.480;13.348;2023-04-24T12:09:56;4.45;;;1.23;;
7263;SDS011;3673;52.480;13.348;2023-04-24T12:12:25;1.38;;;0.80;;
7263;SDS011;3673;52.480;13.348;2023-04-24T12:14:54;3.65;;;1.17;;
7263;SDS011;3673;52.480;13.348;2023-04-24T12:17:24;1.73;;;0.98;;
7263;SDS011;3673;52.480;13.348;2023-04-24T12:19:56;2.15;;;0.95;;
7263;SDS011;3673;52.480;13.348;2023-04-24T12:22:25;2.42;;;0.95;;
7263;SDS011;3673;52.480;13.348;2023-04-24T12:24:56;1.45;;;0.90;;
7263;SDS011;3673;52.480;13.348;2023-04-24T12:27:29;3.05;;;0.70;;
7263;SDS011;3673;52.480;13.348;2023-04-24T12:29:58;3.17;;;0.85;;
7263;SDS011;3673;52.480;13.348;2023-04-24T12:32:26;1.10;;;0.70;;
7263;SDS011;3673;52.480;13.348;2023-04-24T12:34:55;1.75;;;0.80;;
7263;SDS011;3673;52.480;13.348;2023-04-24T12:37:23;1.17;;;0.80;;
7263;SDS011;3673;52.480;13.348;2023-04-24T12:40:01;4.28;;;0.88;;
7263;SDS011;3673;52.480;13.348;2023-04-24T12:42:31;4.70;;;0.77;;
7263;SDS011;3673;52.480;13.348;2023-04-24T12:44:58;1.25;;;1.00;;
7263;SDS011;3673;52.480;13.348;2023-04-24T12:47:27;1.48;;;1.00;;
7263;SDS011;3673;52.480;13.348;2023-04-24T12:49:55;1.58;;;0.70;;
7263;SDS011;3673;52.480;13.348;2023-04-24T12:52:23;3.80;;;1.25;;
7263;SDS011;3673;52.480;13.348;2023-04-24T12:54:52;12.73;;;1.10;;
7263;SDS011;3673;52.480;13.348;2023-04-24T12:57:20;1.17;;;0.80;;
7263;SDS011;3673;52.480;13.348;2023-04-24T12:59:47;0.63;;;0.63;;
7263;SDS011;3673;52.480;13.348;2023-04-24T13:02:13;5.30;;;0.93;;
7263;SDS011;3673;52.480;13.348;2023-04-24T13:04:42;3.17;;;1.08;;
7263;SDS011;3673;52.480;13.348;2023-04-24T13:07:12;3.00;;;0.85;;
7263;SDS011;3673;52.480;13.348;2023-04-24T13:09:39;0.70;;;0.50;;
7263;SDS011;3673;52.480;13.348;2023-04-24T13:12:07;1.55;;;0.75;;
7263;SDS011;3673;52.480;13.348;2023-04-24T13:14:34;1.98;;;1.65;;
7263;SDS011;3673;52.480;13.348;2023-04-24T13:17:01;4.22;;;1.67;;
7263;SDS011;3673;52.480;13.348;2023-04-24T13:19:29;1.77;;;0.93;;
7263;SDS011;3673;52.480;13.348;2023-04-24T13:22:01;3.28;;;0.93;;
7263;SDS011;3673;52.480;13.348;2023-04-24T13:24:29;1.10;;;0.82;;
7263;SDS011;3673;52.480;13.348;2023-04-24T13:26:56;3.55;;;1.40;;
7263;SDS011;3673;52.480;13.348;2023-04-24T13:29:23;2.67;;;0.68;;
7263;SDS011;3673;52.480;13.348;2023-04-24T13:31:50;1.13;;;0.80;;
7263;SDS011;3673;52.480;13.348;2023-04-24T13:34:19;1.38;;;0.95;;
7263;SDS011;3673;52.480;13.348;2023-04-24T13:36:46;2.75;;;1.20;;
7263;SDS011;3673;52.480;13.348;2023-04-24T13:39:13;4.03;;;2.45;;
7263;SDS011;3673;52.480;13.348;2023-04-24T13:41:42;4.70;;;1.80;;
7263;SDS011;3673;52.480;13.348;2023-04-24T13:44:09;1.13;;;1.00;;
7263;SDS011;3673;52.480;13.348;2023-04-24T13:46:35;4.05;;;0.70;;
7263;SDS011;3673;52.480;13.348;2023-04-24T13:49:02;2.20;;;1.00;;
7263;SDS011;3673;52.480;13.348;2023-04-24T13:51:29;0.65;;;0.55;;
7263;SDS011;3673;52.480;13.348;2023-04-24T13:53:56;1.30;;;0.88;;
7263;SDS011;3673;52.480;13.348;2023-04-24T13:56:23;1.83;;;0.70;;
7263;SDS011;3673;52.480;13.348;2023-04-24T13:58:51;1.05;;;0.80;;
7263;SDS011;3673;52.480;13.348;2023-04-24T14:01:18;4.10;;;1.00;;
7263;SDS011;3673;52.480;13.348;2023-04-24T14:03:49;1.67;;;1.08;;
7263;SDS011;3673;52.480;13.348;2023-04-24T14:06:16;2.78;;;1.38;;
7263;SDS011;3673;52.480;13.348;2023-04-24T14:08:43;4.20;;;0.68;;
7263;SDS011;3673;52.480;13.348;2023-04-24T14:11:10;1.02;;;0.77;;
7263;SDS011;3673;52.480;13.348;2023-04-24T14:13:36;2.40;;;0.68;;
7263;SDS011;3673;52.480;13.348;2023-04-24T14:16:05;0.80;;;0.77;;
7263;SDS011;3673;52.480;13.348;2023-04-24T14:18:32;1.42;;;0.70;;
7263;SDS011;3673;52.480;13.348;2023-04-24T14:20:59;2.25;;;0.80;;
7263;SDS011;3673;52.480;13.348;2023-04-24T14:23:26;5.10;;;1.08;;
7263;SDS011;3673;52.480;13.348;2023-04-24T14:25:53;1.58;;;1.17;;
7263;SDS011;3673;52.480;13.348;2023-04-24T14:28:20;2.33;;;1.05;;
7263;SDS011;3673;52.480;13.348;2023-04-24T14:30:47;3.88;;;0.90;;
7263;SDS011;3673;52.480;13.348;2023-04-24T14:33:16;1.25;;;0.85;;
7263;SDS011;3673;52.480;13.348;2023-04-24T14:35:43;1.10;;;0.90;;
7263;SDS011;3673;52.480;13.348;2023-04-24T14:38:10;3.38;;;1.20;;
7263;SDS011;3673;52.480;13.348;2023-04-24T14:40:37;2.15;;;1.10;;
7263;SDS011;3673;52.480;13.348;2023-04-24T14:43:04;1.35;;;1.13;;
7263;SDS011;3673;52.480;13.348;2023-04-24T14:45:32;2.50;;;1.30;;
7263;SDS011;3673;52.480;13.348;2023-04-24T14:47:58;7.20;;;1.20;;
7263;SDS011;3673;52.480;13.348;2023-04-24T14:50:27;2.53;;;0.90;;
7263;SDS011;3673;52.480;13.348;2023-04-24T14:52:53;3.60;;;1.88;;
7263;SDS011;3673;52.480;13.348;2023-04-24T14:55:22;3.17;;;1.05;;
7263;SDS011;3673;52.480;13.348;2023-04-24T14:57:49;1.55;;;1.00;;
7263;SDS011;3673;52.480;13.348;2023-04-24T15:00:16;1.92;;;1.13;;
7263;SDS011;3673;52.480;13.348;2023-04-24T15:02:45;0.80;;;0.80;;
7263;SDS011;3673;52.480;13.348;2023-04-24T15:05:11;2.58;;;1.08;;
7263;SDS011;3673;52.480;13.348;2023-04-24T15:07:40;2.83;;;0.93;;
7263;SDS011;3673;52.480;13.348;2023-04-24T15:10:07;2.28;;;0.90;;
7263;SDS011;3673;52.480;13.348;2023-04-24T15:12:35;1.27;;;1.05;;
7263;SDS011;3673;52.480;13.348;2023-04-24T15:15:02;4.50;;;1.10;;